Time,TemperatureF,DewpointF,PressureIn,WindDirection,WindDirectionDegrees,WindSpeedMPH,WindSpeedGustMPH,Humidity,HourlyPrecipIn,Conditions,Clouds,dailyrainin,SoftwareType,DateUTC
2013-04-17 00:10:00,73.7,70.0,30.09,NNE,28,0.0,3.0,87,0.00,,,0.00,weatherlink.com 1.10,2013-04-17 10:10:00,
2013-04-17 00:28:00,73.4,70.0,30.08,ENE,60,0.0,1.0,88,0.00,,,0.00,weatherlink.com 1.10,2013-04-17 10:28:00,
2013-04-17 00:46:00,73.5,70.0,30.07,East,86,5.0,5.0,88,0.00,,,0.00,weatherlink.com 1.10,2013-04-17 10:46:00,
2013-04-17 01:04:00,73.5,69.0,30.07,NE,51,0.0,3.0,86,0.00,,,0.00,weatherlink.com 1.10,2013-04-17 11:04:00,
2013-04-17 01:22:00,73.2,69.0,30.07,ENE,70,0.0,2.0,87,0.00,,,0.00,weatherlink.com 1.10,2013-04-17 11:22:00,
2013-04-17 01:41:00,72.7,69.0,30.06,SSE,155,1.0,3.0,87,0.00,,,0.00,weatherlink.com 1.10,2013-04-17 11:41:00,
2013-04-17 01:59:00,72.4,68.0,30.06,ESE,103,0.0,0.0,87,0.00,,,0.00,weatherlink.com 1.10,2013-04-17 11:59:00,
2013-04-17 02:17:00,72.0,68.0,30.06,NNE,28,0.0,0.0,88,0.00,,,0.00,weatherlink.com 1.10,2013-04-17 12:17:00,
2013-04-17 02:54:00,72.9,68.0,30.05,NE,53,0.0,3.0,86,0.00,,,0.00,weatherlink.com 1.10,2013-04-17 12:54:00,
2013-04-17 03:12:00,72.5,68.0,30.05,NE,42,0.0,0.0,87,0.00,,,0.00,weatherlink.com 1.10,2013-04-17 13:12:00,
2013-04-17 03:31:00,72.5,69.0,30.05,NE,44,0.0,2.0,88,0.00,,,0.00,weatherlink.com 1.10,2013-04-17 13:31:00,
2013-04-17 03:49:00,72.6,69.0,30.04,ENE,72,0.0,1.0,87,0.00,,,0.00,weatherlink.com 1.10,2013-04-17 13:49:00,
2013-04-17 04:07:00,72.4,68.0,30.05,NE,34,0.0,3.0,87,0.00,,,0.00,weatherlink.com 1.10,2013-04-17 14:07:00,
2013-04-17 04:25:00,71.6,68.0,30.04,SE,142,0.0,3.0,88,0.00,,,0.00,weatherlink.com 1.10,2013-04-17 14:25:00,
2013-04-17 04:43:00,71.4,68.0,30.05,ESE,119,0.0,1.0,90,0.00,,,0.00,weatherlink.com 1.10,2013-04-17 14:43:00,
2013-04-17 05:02:00,71.7,69.0,30.05,SE,142,0.0,4.0,90,0.00,,,0.00,weatherlink.com 1.10,2013-04-17 15:02:00,
2013-04-17 05:21:00,72.2,69.0,30.06,East,90,0.0,3.0,89,0.00,,,0.00,weatherlink.com 1.10,2013-04-17 15:21:00,
2013-04-17 05:39:00,72.1,68.0,30.06,NE,49,0.0,0.0,88,0.00,,,0.00,weatherlink.com 1.10,2013-04-17 15:39:00,
2013-04-17 05:57:00,72.0,68.0,30.06,ENE,60,0.0,1.0,88,0.00,,,0.00,weatherlink.com 1.10,2013-04-17 15:57:00,
2013-04-17 06:16:00,71.9,68.0,30.07,ENE,60,0.0,2.0,89,0.00,,,0.00,weatherlink.com 1.10,2013-04-17 16:16:00,
2013-04-17 06:34:00,71.9,68.0,30.07,ENE,60,0.0,0.0,89,0.00,,,0.00,weatherlink.com 1.10,2013-04-17 16:34:00,
2013-04-17 06:52:00,73.2,69.0,30.08,ENE,60,0.0,1.0,88,0.00,,,0.00,weatherlink.com 1.10,2013-04-17 16:52:00,
2013-04-17 07:11:00,75.2,70.0,30.08,East,101,0.0,5.0,84,0.00,,,0.00,weatherlink.com 1.10,2013-04-17 17:11:00,
2013-04-17 07:29:00,76.1,71.0,30.09,NE,48,5.0,5.0,83,0.00,,,0.00,weatherlink.com 1.10,2013-04-17 17:29:00,
2013-04-17 07:47:00,76.3,70.0,30.10,ENE,76,2.0,6.0,82,0.00,,,0.00,weatherlink.com 1.10,2013-04-17 17:47:00,
2013-04-17 08:05:00,76.7,71.0,30.10,ENE,77,1.0,5.0,82,0.00,,,0.00,weatherlink.com 1.10,2013-04-17 18:05:00,
2013-04-17 08:24:00,76.8,71.0,30.11,NE,40,2.0,7.0,82,0.00,,,0.00,weatherlink.com 1.10,2013-04-17 18:24:00,
2013-04-17 08:42:00,76.9,71.0,30.11,ENE,61,0.0,8.0,82,0.00,,,0.00,weatherlink.com 1.10,2013-04-17 18:42:00,
2013-04-17 09:00:00,77.3,71.0,30.12,ENE,77,1.0,7.0,82,0.00,,,0.00,weatherlink.com 1.10,2013-04-17 19:00:00,
2013-04-17 09:19:00,77.4,72.0,30.12,South,174,4.0,5.0,83,0.00,,,0.00,weatherlink.com 1.10,2013-04-17 19:19:00,
2013-04-17 10:03:00,79.3,72.0,30.12,East,98,5.0,6.0,79,0.00,,,0.00,weatherlink.com 1.10,2013-04-17 20:03:00,
2013-04-17 10:21:00,78.7,72.0,30.12,ESE,122,4.0,12.0,80,0.00,,,0.00,weatherlink.com 1.10,2013-04-17 20:21:00,
2013-04-17 10:39:00,78.7,72.0,30.12,ENE,63,4.0,8.0,81,0.00,,,0.00,weatherlink.com 1.10,2013-04-17 20:39:00,
2013-04-17 10:57:00,78.6,72.0,30.12,ENE,66,2.0,9.0,81,0.00,,,0.00,weatherlink.com 1.10,2013-04-17 20:57:00,
2013-04-17 11:16:00,79.3,73.0,30.12,East,88,8.0,9.0,80,0.00,,,0.00,weatherlink.com 1.10,2013-04-17 21:16:00,
2013-04-17 11:34:00,78.8,72.0,30.12,East,84,0.0,8.0,80,0.00,,,0.00,weatherlink.com 1.10,2013-04-17 21:34:00,
2013-04-17 11:52:00,79.3,71.0,30.12,SE,131,0.0,8.0,77,0.00,,,0.00,weatherlink.com 1.10,2013-04-17 21:52:00,
2013-04-17 12:10:00,79.8,72.0,30.11,ESE,120,3.0,7.0,77,0.00,,,0.00,weatherlink.com 1.10,2013-04-17 22:10:00,
2013-04-17 12:28:00,80.0,73.0,30.11,ENE,66,2.0,7.0,78,0.00,,,0.00,weatherlink.com 1.10,2013-04-17 22:28:00,
2013-04-17 12:47:00,79.4,72.0,30.10,SE,138,0.0,7.0,78,0.00,,,0.00,weatherlink.com 1.10,2013-04-17 22:47:00,
2013-04-17 13:05:00,79.1,72.0,30.10,East,84,3.0,9.0,78,0.00,,,0.00,weatherlink.com 1.10,2013-04-17 23:05:00,
2013-04-17 13:23:00,78.8,71.0,30.09,ENE,76,1.0,11.0,78,0.00,,,0.00,weatherlink.com 1.10,2013-04-17 23:23:00,
2013-04-17 13:41:00,79.3,71.0,30.09,East,81,3.0,11.0,77,0.00,,,0.00,weatherlink.com 1.10,2013-04-17 23:41:00,
2013-04-17 14:40:00,79.1,71.0,30.07,SSW,199,4.0,8.0,77,0.00,,,0.00,weatherlink.com 1.10,2013-04-18 00:40:00,
2013-04-17 14:59:00,79.7,72.0,30.07,ESE,123,8.0,8.0,78,0.00,,,0.00,weatherlink.com 1.10,2013-04-18 00:59:00,
2013-04-17 15:17:00,79.6,71.0,30.07,SE,138,2.0,10.0,76,0.00,,,0.00,weatherlink.com 1.10,2013-04-18 01:17:00,
2013-04-17 15:55:00,78.9,71.0,30.07,SSW,206,6.0,12.0,77,0.00,,,0.00,weatherlink.com 1.10,2013-04-18 01:55:00,
2013-04-17 16:13:00,78.0,71.0,30.07,NE,54,1.0,10.0,79,0.00,,,0.00,weatherlink.com 1.10,2013-04-18 02:13:00,
2013-04-17 16:32:00,77.4,71.0,30.07,East,98,2.0,7.0,80,0.00,,,0.00,weatherlink.com 1.10,2013-04-18 02:32:00,
2013-04-17 16:50:00,76.8,71.0,30.08,ENE,60,2.0,8.0,81,0.00,,,0.00,weatherlink.com 1.10,2013-04-18 02:50:00,
2013-04-17 17:10:00,76.5,70.0,30.08,East,96,0.0,7.0,80,0.00,,,0.00,weatherlink.com 1.10,2013-04-18 03:10:00,
2013-04-17 17:29:00,76.3,69.0,30.08,NE,52,0.0,10.0,79,0.00,,,0.00,weatherlink.com 1.10,2013-04-18 03:29:00,
2013-04-17 17:47:00,76.0,70.0,30.09,SSE,147,3.0,7.0,82,0.00,,,0.00,weatherlink.com 1.10,2013-04-18 03:47:00,
2013-04-17 18:07:00,75.4,69.0,30.09,ESE,103,2.0,9.0,81,0.00,,,0.00,weatherlink.com 1.10,2013-04-18 04:07:00,
2013-04-17 18:25:00,75.1,69.0,30.10,East,96,0.0,4.0,81,0.00,,,0.00,weatherlink.com 1.10,2013-04-18 04:25:00,
2013-04-17 18:43:00,74.7,68.0,30.10,NE,45,1.0,6.0,80,0.00,,,0.00,weatherlink.com 1.10,2013-04-18 04:43:00,
2013-04-17 19:01:00,74.6,69.0,30.10,ENE,63,0.0,5.0,82,0.00,,,0.00,weatherlink.com 1.10,2013-04-18 05:01:00,
2013-04-17 19:19:00,74.4,68.0,30.11,ESE,109,0.0,8.0,80,0.00,,,0.00,weatherlink.com 1.10,2013-04-18 05:19:00,
2013-04-17 19:37:00,74.4,67.0,30.11,East,100,0.0,7.0,79,0.00,,,0.00,weatherlink.com 1.10,2013-04-18 05:37:00,
2013-04-17 19:55:00,74.3,67.0,30.12,ESE,116,2.0,7.0,79,0.00,,,0.00,weatherlink.com 1.10,2013-04-18 05:55:00,
2013-04-17 20:13:00,74.3,67.0,30.12,ENE,58,2.0,6.0,79,0.00,,,0.00,weatherlink.com 1.10,2013-04-18 06:13:00,
2013-04-17 20:32:00,74.4,68.0,30.13,NE,53,2.0,7.0,80,0.00,,,0.00,weatherlink.com 1.10,2013-04-18 06:32:00,
2013-04-17 20:56:00,74.4,68.0,30.14,ENE,65,3.0,8.0,80,0.00,,,0.00,weatherlink.com 1.10,2013-04-18 06:56:00,
2013-04-17 21:14:00,74.5,68.0,30.15,ESE,103,3.0,8.0,79,0.00,,,0.00,weatherlink.com 1.10,2013-04-18 07:14:00,
2013-04-17 21:33:00,74.5,68.0,30.16,East,101,5.0,8.0,79,0.00,,,0.00,weatherlink.com 1.10,2013-04-18 07:33:00,
2013-04-17 21:51:00,74.4,67.0,30.15,East,92,1.0,8.0,78,0.00,,,0.00,weatherlink.com 1.10,2013-04-18 07:51:00,
2013-04-17 22:09:00,74.0,67.0,30.16,ESE,112,2.0,5.0,79,0.00,,,0.00,weatherlink.com 1.10,2013-04-18 08:09:00,
2013-04-17 22:27:00,74.0,67.0,30.16,NE,51,2.0,9.0,80,0.00,,,0.00,weatherlink.com 1.10,2013-04-18 08:27:00,
2013-04-17 22:45:00,74.0,67.0,30.15,ESE,102,2.0,11.0,79,0.00,,,0.00,weatherlink.com 1.10,2013-04-18 08:45:00,
2013-04-17 23:04:00,73.9,67.0,30.15,East,94,1.0,12.0,80,0.00,,,0.00,weatherlink.com 1.10,2013-04-18 09:04:00,
2013-04-17 23:22:00,74.0,67.0,30.14,NE,50,0.0,7.0,79,0.00,,,0.00,weatherlink.com 1.10,2013-04-18 09:22:00,
2013-04-17 23:40:00,74.0,67.0,30.14,SE,127,0.0,7.0,79,0.00,,,0.00,weatherlink.com 1.10,2013-04-18 09:40:00,
2013-04-17 23:58:00,73.9,67.0,30.13,East,95,0.0,7.0,80,0.00,,,0.00,weatherlink.com 1.10,2013-04-18 09:58:00,